sensor_id;sensor_type;location;lat;lon;timestamp;pressure;altitude;pressure_sealevel;temperature;humidity
53916;BME280;39827;49.652;18.770;2024-03-02T00:00:01;74002.44;;;-149.71;95.51
53916;BME280;39827;49.652;18.770;2024-03-02T00:02:39;74022.53;;;-149.71;96.10
53916;BME280;39827;49.652;18.770;2024-03-02T00:05:05;74022.53;;;-149.71;96.46
53916;BME280;39827;49.652;18.770;2024-03-02T00:07:31;74032.56;;;-149.71;96.02
53916;BME280;39827;49.652;18.770;2024-03-02T00:09:56;74058.69;;;-149.71;96.05
53916;BME280;39827;49.652;18.770;2024-03-02T00:12:22;74060.69;;;-149.71;96.80
53916;BME280;39827;49.652;18.770;2024-03-02T00:14:47;74052.66;;;-149.71;96.84
53916;BME280;39827;49.652;18.770;2024-03-02T00:17:21;74052.66;;;-149.71;97.12
53916;BME280;39827;49.652;18.770;2024-03-02T00:19:49;74050.66;;;-149.71;97.69
53916;BME280;39827;49.652;18.770;2024-03-02T00:22:15;74056.69;;;-149.71;97.31
53916;BME280;39827;49.652;18.770;2024-03-02T00:24:40;74050.66;;;-149.71;97.35
53916;BME280;39827;49.652;18.770;2024-03-02T00:27:07;74058.69;;;-149.71;97.39
53916;BME280;39827;49.652;18.770;2024-03-02T00:29:32;74056.69;;;-149.71;97.33
53916;BME280;39827;49.652;18.770;2024-03-02T00:32:00;74060.69;;;-149.71;97.27
53916;BME280;39827;49.652;18.770;2024-03-02T00:34:26;74060.69;;;-149.71;96.92
53916;BME280;39827;49.652;18.770;2024-03-02T00:36:51;74054.69;;;-149.71;96.92
53916;BME280;39827;49.652;18.770;2024-03-02T00:39:18;74058.69;;;-149.71;96.97
53916;BME280;39827;49.652;18.770;2024-03-02T00:41:43;74048.66;;;-149.71;96.66
53916;BME280;39827;49.652;18.770;2024-03-02T00:44:12;74036.59;;;-149.71;96.79
53916;BME280;39827;49.652;18.770;2024-03-02T00:46:39;74038.59;;;-149.71;96.87
53916;BME280;39827;49.652;18.770;2024-03-02T00:51:46;74044.63;;;-149.71;95.91
53916;BME280;39827;49.652;18.770;2024-03-02T00:54:13;74054.69;;;-149.71;96.15
53916;BME280;39827;49.652;18.770;2024-03-02T00:56:41;74054.69;;;-149.71;96.57
53916;BME280;39827;49.652;18.770;2024-03-02T00:59:07;74052.66;;;-149.71;96.94
53916;BME280;39827;49.652;18.770;2024-03-02T01:01:34;74060.69;;;-149.71;96.91
53916;BME280;39827;49.652;18.770;2024-03-02T01:04:00;74054.69;;;-149.71;97.08
53916;BME280;39827;49.652;18.770;2024-03-02T01:06:25;74042.63;;;-149.71;97.80
53916;BME280;39827;49.652;18.770;2024-03-02T01:08:51;74020.53;;;-149.71;97.27
53916;BME280;39827;49.652;18.770;2024-03-02T01:11:16;74026.53;;;-149.71;96.86
53916;BME280;39827;49.652;18.770;2024-03-02T01:13:43;74038.59;;;-149.71;96.83
53916;BME280;39827;49.652;18.770;2024-03-02T01:16:08;74050.66;;;-149.71;96.98
53916;BME280;39827;49.652;18.770;2024-03-02T01:18:33;74042.63;;;-149.71;97.49
53916;BME280;39827;49.652;18.770;2024-03-02T01:20:59;74042.63;;;-149.71;96.57
53916;BME280;39827;49.652;18.770;2024-03-02T01:23:25;74044.63;;;-149.71;96.51
53916;BME280;39827;49.652;18.770;2024-03-02T01:25:51;74038.59;;;-149.71;96.46
53916;BME280;39827;49.652;18.770;2024-03-02T01:28:17;74040.59;;;-149.71;96.44
53916;BME280;39827;49.652;18.770;2024-03-02T01:30:43;74040.59;;;-149.71;96.17
53916;BME280;39827;49.652;18.770;2024-03-02T01:33:08;74046.63;;;-149.71;96.58
53916;BME280;39827;49.652;18.770;2024-03-02T01:35:34;74042.63;;;-149.71;95.94
53916;BME280;39827;49.652;18.770;2024-03-02T01:38:00;74046.63;;;-149.71;97.10
53916;BME280;39827;49.652;18.770;2024-03-02T01:40:26;74026.53;;;-149.71;96.30
53916;BME280;39827;49.652;18.770;2024-03-02T01:42:53;73992.41;;;-149.71;95.72
53916;BME280;39827;49.652;18.770;2024-03-02T01:45:23;73996.41;;;-149.71;96.06
53916;BME280;39827;49.652;18.770;2024-03-02T01:47:49;74006.47;;;-149.71;95.99
53916;BME280;39827;49.652;18.770;2024-03-02T01:50:14;74012.47;;;-149.71;95.78
53916;BME280;39827;49.652;18.770;2024-03-02T01:52:40;74032.56;;;-149.71;96.16
53916;BME280;39827;49.652;18.770;2024-03-02T01:55:06;74024.53;;;-149.71;95.93
53916;BME280;39827;49.652;18.770;2024-03-02T01:57:33;74008.47;;;-149.71;97.09
53916;BME280;39827;49.652;18.770;2024-03-02T01:59:59;74010.47;;;-149.71;95.61
53916;BME280;39827;49.652;18.770;2024-03-02T02:02:25;74000.44;;;-149.71;96.24
53916;BME280;39827;49.652;18.770;2024-03-02T02:04:50;74016.50;;;-149.71;96.13
53916;BME280;39827;49.652;18.770;2024-03-02T02:07:16;74002.44;;;-149.71;96.76
53916;BME280;39827;49.652;18.770;2024-03-02T02:09:41;73972.31;;;-149.71;96.96
53916;BME280;39827;49.652;18.770;2024-03-02T02:12:07;73968.28;;;-149.71;96.65
53916;BME280;39827;49.652;18.770;2024-03-02T02:14:33;73998.41;;;-149.71;96.01
53916;BME280;39827;49.652;18.770;2024-03-02T02:16:59;74002.44;;;-149.71;96.31
53916;BME280;39827;49.652;18.770;2024-03-02T02:19:24;74006.47;;;-149.71;96.62
53916;BME280;39827;49.652;18.770;2024-03-02T02:21:50;74004.44;;;-149.71;97.47
53916;BME280;39827;49.652;18.770;2024-03-02T02:24:15;73998.41;;;-149.71;97.05
53916;BME280;39827;49.652;18.770;2024-03-02T02:26:40;73982.34;;;-149.71;96.50
53916;BME280;39827;49.652;18.770;2024-03-02T02:29:06;73988.38;;;-149.71;95.73
53916;BME280;39827;49.652;18.770;2024-03-02T02:31:38;74012.47;;;-149.71;96.24
53916;BME280;39827;49.652;18.770;2024-03-02T02:34:04;73996.41;;;-149.71;96.51
53916;BME280;39827;49.652;18.770;2024-03-02T02:36:29;74006.47;;;-149.71;96.30
53916;BME280;39827;49.652;18.770;2024-03-02T02:38:55;73984.34;;;-149.71;96.51
53916;BME280;39827;49.652;18.770;2024-03-02T02:41:20;73988.38;;;-149.71;95.90
53916;BME280;39827;49.652;18.770;2024-03-02T02:43:47;74020.53;;;-149.71;95.19
53916;BME280;39827;49.652;18.770;2024-03-02T02:46:12;74030.56;;;-149.71;96.31
53916;BME280;39827;49.652;18.770;2024-03-02T02:48:37;74014.50;;;-149.71;96.68
53916;BME280;39827;49.652;18.770;2024-03-02T02:51:03;73998.41;;;-149.71;96.30
53916;BME280;39827;49.652;18.770;2024-03-02T02:53:28;74028.56;;;-149.71;95.75
53916;BME280;39827;49.652;18.770;2024-03-02T02:55:54;74030.56;;;-149.71;95.83
53916;BME280;39827;49.652;18.770;2024-03-02T02:58:19;74026.53;;;-149.71;95.85
53916;BME280;39827;49.652;18.770;2024-03-02T03:00:44;74034.59;;;-149.71;96.48
53916;BME280;39827;49.652;18.770;2024-03-02T03:03:10;74020.53;;;-149.71;97.81
53916;BME280;39827;49.652;18.770;2024-03-02T03:05:35;73994.41;;;-149.71;97.29
53916;BME280;39827;49.652;18.770;2024-03-02T03:08:00;73982.34;;;-149.71;96.70
53916;BME280;39827;49.652;18.770;2024-03-02T03:10:26;73984.34;;;-149.71;96.25
53916;BME280;39827;49.652;18.770;2024-03-02T03:12:52;73988.38;;;-149.71;96.61
53916;BME280;39827;49.652;18.770;2024-03-02T03:15:18;73990.38;;;-149.71;96.70
53916;BME280;39827;49.652;18.770;2024-03-02T03:17:43;74004.44;;;-149.71;95.96
53916;BME280;39827;49.652;18.770;2024-03-02T03:20:11;74010.47;;;-149.71;95.99
53916;BME280;39827;49.652;18.770;2024-03-02T03:22:37;74002.44;;;-149.71;96.64
53916;BME280;39827;49.652;18.770;2024-03-02T03:25:02;73998.41;;;-149.71;96.69
53916;BME280;39827;49.652;18.770;2024-03-02T03:27:28;73980.34;;;-149.71;96.74
53916;BME280;39827;49.652;18.770;2024-03-02T03:29:54;73972.31;;;-149.71;96.13
53916;BME280;39827;49.652;18.770;2024-03-02T03:32:19;73972.31;;;-149.71;95.62
53916;BME280;39827;49.652;18.770;2024-03-02T03:34:44;73970.28;;;-149.71;95.29
53916;BME280;39827;49.652;18.770;2024-03-02T03:37:10;73984.34;;;-149.71;95.82
53916;BME280;39827;49.652;18.770;2024-03-02T03:39:36;73970.28;;;-149.71;95.95
53916;BME280;39827;49.652;18.770;2024-03-02T03:42:01;73970.28;;;-149.71;95.44
53916;BME280;39827;49.652;18.770;2024-03-02T03:44:26;73966.28;;;-149.71;95.34
53916;BME280;39827;49.652;18.770;2024-03-02T03:46:52;73972.31;;;-149.71;95.79
53916;BME280;39827;49.652;18.770;2024-03-02T03:49:17;73970.28;;;-149.71;96.44
53916;BME280;39827;49.652;18.770;2024-03-02T03:51:43;73954.22;;;-149.71;96.57
53916;BME280;39827;49.652;18.770;2024-03-02T03:54:08;73944.19;;;-149.71;96.90
53916;BME280;39827;49.652;18.770;2024-03-02T03:56:36;73926.09;;;-149.71;97.07
53916;BME280;39827;49.652;18.770;2024-03-02T03:59:01;73902.00;;;-149.71;96.61
53916;BME280;39827;49.652;18.770;2024-03-02T04:01:27;73897.97;;;-149.71;96.28
53916;BME280;39827;49.652;18.770;2024-03-02T04:03:52;73906.00;;;-149.71;95.73
53916;BME280;39827;49.652;18.770;2024-03-02T04:06:18;73908.00;;;-149.71;95.64
53916;BME280;39827;49.652;18.770;2024-03-02T04:08:43;73912.03;;;-149.71;95.77
53916;BME280;39827;49.652;18.770;2024-03-02T04:11:08;73910.03;;;-149.71;95.35
53916;BME280;39827;49.652;18.770;2024-03-02T04:13:34;73920.06;;;-149.71;95.29
53916;BME280;39827;49.652;18.770;2024-03-02T04:15:59;73942.16;;;-149.71;95.17
53916;BME280;39827;49.652;18.770;2024-03-02T04:18:24;73958.25;;;-149.71;95.15
53916;BME280;39827;49.652;18.770;2024-03-02T04:20:50;73954.22;;;-149.71;95.79
53916;BME280;39827;49.652;18.770;2024-03-02T04:23:15;73958.25;;;-149.71;96.48
53916;BME280;39827;49.652;18.770;2024-03-02T04:25:40;73942.16;;;-149.71;97.01
53916;BME280;39827;49.652;18.770;2024-03-02T04:28:06;73942.16;;;-149.71;96.59
53916;BME280;39827;49.652;18.770;2024-03-02T04:30:31;73942.16;;;-149.71;96.68
53916;BME280;39827;49.652;18.770;2024-03-02T04:32:57;73954.22;;;-149.71;97.49
53916;BME280;39827;49.652;18.770;2024-03-02T04:35:22;73946.19;;;-149.71;97.58
53916;BME280;39827;49.652;18.770;2024-03-02T04:37:47;73954.22;;;-149.71;97.27
53916;BME280;39827;49.652;18.770;2024-03-02T04:40:13;73960.25;;;-149.71;97.54
53916;BME280;39827;49.652;18.770;2024-03-02T04:42:38;73948.19;;;-149.71;97.59
53916;BME280;39827;49.652;18.770;2024-03-02T04:45:04;73944.19;;;-149.71;97.41
53916;BME280;39827;49.652;18.770;2024-03-02T04:47:29;73940.16;;;-149.71;96.80
53916;BME280;39827;49.652;18.770;2024-03-02T04:49:55;73934.13;;;-149.71;96.37
53916;BME280;39827;49.652;18.770;2024-03-02T04:52:20;73948.19;;;-149.71;96.40
53916;BME280;39827;49.652;18.770;2024-03-02T04:54:46;73974.31;;;-149.71;96.44
53916;BME280;39827;49.652;18.770;2024-03-02T04:57:30;73970.28;;;-149.71;96.08
53916;BME280;39827;49.652;18.770;2024-03-02T04:59:55;73976.31;;;-149.71;96.30
53916;BME280;39827;49.652;18.770;2024-03-02T05:02:21;73984.34;;;-149.71;96.53
53916;BME280;39827;49.652;18.770;2024-03-02T05:04:46;73982.34;;;-149.71;96.65
53916;BME280;39827;49.652;18.770;2024-03-02T05:07:13;73972.31;;;-149.71;96.81
53916;BME280;39827;49.652;18.770;2024-03-02T05:09:39;73970.28;;;-149.71;97.01
53916;BME280;39827;49.652;18.770;2024-03-02T05:12:05;73956.22;;;-149.71;96.53
53916;BME280;39827;49.652;18.770;2024-03-02T05:14:49;73974.31;;;-149.71;96.52
53916;BME280;39827;49.652;18.770;2024-03-02T05:17:14;73972.31;;;-149.71;96.21
53916;BME280;39827;49.652;18.770;2024-03-02T05:19:40;73972.31;;;-149.71;96.92
53916;BME280;39827;49.652;18.770;2024-03-02T05:22:05;73938.16;;;-149.71;96.58
53916;BME280;39827;49.652;18.770;2024-03-02T05:24:31;73930.13;;;-149.71;95.54
53916;BME280;39827;49.652;18.770;2024-03-02T05:26:56;73936.13;;;-149.71;94.70
53916;BME280;39827;49.652;18.770;2024-03-02T05:29:21;73958.25;;;-149.71;94.59
53916;BME280;39827;49.652;18.770;2024-03-02T05:31:48;73992.41;;;-149.71;95.70
53916;BME280;39827;49.652;18.770;2024-03-02T05:34:13;73998.41;;;-149.71;96.27
53916;BME280;39827;49.652;18.770;2024-03-02T05:36:38;73992.41;;;-149.71;96.59
53916;BME280;39827;49.652;18.770;2024-03-02T05:39:04;73966.28;;;-149.71;95.80
53916;BME280;39827;49.652;18.770;2024-03-02T05:41:31;73962.25;;;-149.71;96.20
53916;BME280;39827;49.652;18.770;2024-03-02T05:43:57;73976.31;;;-149.71;95.84
53916;BME280;39827;49.652;18.770;2024-03-02T05:46:22;73970.28;;;-149.71;95.82
53916;BME280;39827;49.652;18.770;2024-03-02T05:48:47;73956.22;;;-149.71;95.95
53916;BME280;39827;49.652;18.770;2024-03-02T05:51:13;73952.22;;;-149.71;95.51
53916;BME280;39827;49.652;18.770;2024-03-02T05:53:38;73958.25;;;-149.71;96.21
53916;BME280;39827;49.652;18.770;2024-03-02T05:56:04;73946.19;;;-149.71;95.91
53916;BME280;39827;49.652;18.770;2024-03-02T05:58:30;73948.19;;;-149.71;95.68
53916;BME280;39827;49.652;18.770;2024-03-02T06:00:59;73956.22;;;-149.71;95.15
53916;BME280;39827;49.652;18.770;2024-03-02T06:03:24;73956.22;;;-149.71;94.94
53916;BME280;39827;49.652;18.770;2024-03-02T06:05:50;73962.25;;;-149.71;95.68
53916;BME280;39827;49.652;18.770;2024-03-02T06:08:16;73954.22;;;-149.71;95.61
53916;BME280;39827;49.652;18.770;2024-03-02T06:10:41;73950.19;;;-149.71;95.54
53916;BME280;39827;49.652;18.770;2024-03-02T06:13:06;73934.13;;;-149.71;95.20
53916;BME280;39827;49.652;18.770;2024-03-02T06:15:32;73930.13;;;-149.71;95.35
53916;BME280;39827;49.652;18.770;2024-03-02T06:17:58;73924.09;;;-149.71;95.60
53916;BME280;39827;49.652;18.770;2024-03-02T06:20:23;73912.03;;;-149.71;95.62
53916;BME280;39827;49.652;18.770;2024-03-02T06:22:49;73904.00;;;-149.71;95.16
53916;BME280;39827;49.652;18.770;2024-03-02T06:25:14;73908.00;;;-149.71;95.16
53916;BME280;39827;49.652;18.770;2024-03-02T06:27:39;73899.97;;;-149.71;94.71
53916;BME280;39827;49.652;18.770;2024-03-02T06:30:05;73922.06;;;-149.71;95.10
53916;BME280;39827;49.652;18.770;2024-03-02T06:32:30;73899.97;;;-149.71;95.07
53916;BME280;39827;49.652;18.770;2024-03-02T06:34:56;73897.97;;;-149.71;94.86
53916;BME280;39827;49.652;18.770;2024-03-02T06:37:21;73881.91;;;-149.71;94.77
53916;BME280;39827;49.652;18.770;2024-03-02T06:39:46;73881.91;;;-149.71;94.29
53916;BME280;39827;49.652;18.770;2024-03-02T06:42:12;73875.88;;;-149.71;94.43
53916;BME280;39827;49.652;18.770;2024-03-02T06:44:37;73877.88;;;-149.71;93.79
53916;BME280;39827;49.652;18.770;2024-03-02T06:47:03;73867.84;;;-149.71;93.84
53916;BME280;39827;49.652;18.770;2024-03-02T06:49:29;73873.88;;;-149.71;93.97
53916;BME280;39827;49.652;18.770;2024-03-02T06:51:54;73877.88;;;-149.71;94.47
53916;BME280;39827;49.652;18.770;2024-03-02T06:54:20;73861.81;;;-149.71;93.80
53916;BME280;39827;49.652;18.770;2024-03-02T06:56:46;73845.75;;;-149.71;93.34
53916;BME280;39827;49.652;18.770;2024-03-02T06:59:11;73841.72;;;-149.71;93.33
53916;BME280;39827;49.652;18.770;2024-03-02T07:01:37;73851.75;;;-149.71;93.44
53916;BME280;39827;49.652;18.770;2024-03-02T07:04:02;73841.72;;;-149.71;93.68
53916;BME280;39827;49.652;18.770;2024-03-02T07:06:28;73829.66;;;-149.71;93.71
53916;BME280;39827;49.652;18.770;2024-03-02T07:08:53;73821.63;;;-149.71;93.17
53916;BME280;39827;49.652;18.770;2024-03-02T07:11:18;73821.63;;;-149.71;92.64
53916;BME280;39827;49.652;18.770;2024-03-02T07:13:44;73819.63;;;-149.71;92.75
53916;BME280;39827;49.652;18.770;2024-03-02T07:16:09;73829.66;;;-149.71;93.29
53916;BME280;39827;49.652;18.770;2024-03-02T07:18:55;73809.56;;;-149.71;93.12
53916;BME280;39827;49.652;18.770;2024-03-02T07:21:22;73801.53;;;-149.71;93.49
53916;BME280;39827;49.652;18.770;2024-03-02T07:23:48;73791.50;;;-149.71;93.86
53916;BME280;39827;49.652;18.770;2024-03-02T07:26:13;73785.47;;;-149.71;93.49
53916;BME280;39827;49.652;18.770;2024-03-02T07:28:41;73761.38;;;-149.71;92.88
53916;BME280;39827;49.652;18.770;2024-03-02T07:31:06;73745.28;;;-149.71;92.65
53916;BME280;39827;49.652;18.770;2024-03-02T07:33:32;73735.25;;;-149.71;93.24
53916;BME280;39827;49.652;18.770;2024-03-02T07:35:59;73729.22;;;-149.71;92.55
53916;BME280;39827;49.652;18.770;2024-03-02T07:38:26;73739.28;;;-149.71;92.82
53916;BME280;39827;49.652;18.770;2024-03-02T07:40:52;73727.22;;;-149.71;92.65
53916;BME280;39827;49.652;18.770;2024-03-02T07:43:21;73711.13;;;-149.71;92.38
53916;BME280;39827;49.652;18.770;2024-03-02T07:45:47;73691.06;;;-149.71;92.28
53916;BME280;39827;49.652;18.770;2024-03-02T07:48:14;73668.97;;;-149.71;92.04
53916;BME280;39827;49.652;18.770;2024-03-02T07:50:39;73648.88;;;-149.71;91.67
53916;BME280;39827;49.652;18.770;2024-03-02T07:53:05;73624.75;;;-149.71;91.83
53916;BME280;39827;49.652;18.770;2024-03-02T07:55:32;73616.72;;;-149.71;91.81
53916;BME280;39827;49.652;18.770;2024-03-02T07:57:58;73604.69;;;-149.71;92.09
53916;BME280;39827;49.652;18.770;2024-03-02T08:00:24;73608.69;;;-149.71;92.54
53916;BME280;39827;49.652;18.770;2024-03-02T08:02:51;73590.63;;;-149.71;92.68
53916;BME280;39827;49.652;18.770;2024-03-02T08:05:17;73578.56;;;-149.71;91.69
53916;BME280;39827;49.652;18.770;2024-03-02T08:07:44;73560.47;;;-149.71;90.89
53916;BME280;39827;49.652;18.770;2024-03-02T08:10:10;73566.50;;;-149.71;91.19
53916;BME280;39827;49.652;18.770;2024-03-02T08:12:36;73560.47;;;-149.71;91.38
53916;BME280;39827;49.652;18.770;2024-03-02T08:15:01;73548.44;;;-149.71;91.22
53916;BME280;39827;49.652;18.770;2024-03-02T08:17:27;73538.38;;;-149.71;90.72
53916;BME280;39827;49.652;18.770;2024-03-02T08:19:52;73528.34;;;-149.71;90.69
53916;BME280;39827;49.652;18.770;2024-03-02T08:22:18;73520.31;;;-149.71;91.12
53916;BME280;39827;49.652;18.770;2024-03-02T08:24:44;73496.19;;;-149.71;90.52
53916;BME280;39827;49.652;18.770;2024-03-02T08:27:09;73484.16;;;-149.71;89.93
53916;BME280;39827;49.652;18.770;2024-03-02T08:29:35;73470.09;;;-149.71;89.14
53916;BME280;39827;49.652;18.770;2024-03-02T08:32:00;73466.06;;;-149.71;88.88
53916;BME280;39827;49.652;18.770;2024-03-02T08:34:26;73464.06;;;-149.71;89.74
53916;BME280;39827;49.652;18.770;2024-03-02T08:36:51;73443.97;;;-149.71;89.50
53916;BME280;39827;49.652;18.770;2024-03-02T08:39:17;73448.00;;;-149.71;88.31
53916;BME280;39827;49.652;18.770;2024-03-02T08:41:45;73435.94;;;-149.71;88.54
53916;BME280;39827;49.652;18.770;2024-03-02T08:44:10;73441.97;;;-149.71;88.46
53916;BME280;39827;49.652;18.770;2024-03-02T08:46:36;73427.91;;;-149.71;88.14
53916;BME280;39827;49.652;18.770;2024-03-02T08:49:02;73425.91;;;-149.71;89.00
53916;BME280;39827;49.652;18.770;2024-03-02T08:51:28;73415.84;;;-149.71;89.39
53916;BME280;39827;49.652;18.770;2024-03-02T08:53:53;73403.81;;;-149.71;89.19
53916;BME280;39827;49.652;18.770;2024-03-02T08:56:18;73395.75;;;-149.71;88.70
53916;BME280;39827;49.652;18.770;2024-03-02T08:58:45;73383.72;;;-149.71;88.94
53916;BME280;39827;49.652;18.770;2024-03-02T09:01:11;73375.69;;;-149.71;87.42
53916;BME280;39827;49.652;18.770;2024-03-02T09:03:37;73387.72;;;-149.71;87.01
53916;BME280;39827;49.652;18.770;2024-03-02T09:06:02;73387.72;;;-149.71;82.45
53916;BME280;39827;49.652;18.770;2024-03-02T09:08:28;73355.59;;;-149.71;84.24
53916;BME280;39827;49.652;18.770;2024-03-02T09:10:54;73359.59;;;-149.71;78.57
53916;BME280;39827;49.652;18.770;2024-03-02T09:13:20;73335.50;;;-149.71;79.92
53916;BME280;39827;49.652;18.770;2024-03-02T09:15:45;73339.53;;;-149.71;77.69
53916;BME280;39827;49.652;18.770;2024-03-02T09:18:11;73337.50;;;-149.71;73.16
53916;BME280;39827;49.652;18.770;2024-03-02T09:20:36;73339.53;;;-149.71;75.45
53916;BME280;39827;49.652;18.770;2024-03-02T09:23:01;73335.50;;;-149.71;74.29
53916;BME280;39827;49.652;18.770;2024-03-02T09:25:27;73327.47;;;-149.71;73.71
53916;BME280;39827;49.652;18.770;2024-03-02T09:27:52;73347.56;;;-149.71;71.34
53916;BME280;39827;49.652;18.770;2024-03-02T09:30:18;73345.53;;;-149.71;73.01
53916;BME280;39827;49.652;18.770;2024-03-02T09:32:43;73347.56;;;-149.71;71.16
53916;BME280;39827;49.652;18.770;2024-03-02T09:35:08;73367.63;;;-149.71;71.05
53916;BME280;39827;49.652;18.770;2024-03-02T09:37:34;73345.53;;;-149.71;71.34
53916;BME280;39827;49.652;18.770;2024-03-02T09:40:00;73337.50;;;-149.71;72.94
53916;BME280;39827;49.652;18.770;2024-03-02T09:42:26;73347.56;;;-149.71;69.95
53916;BME280;39827;49.652;18.770;2024-03-02T09:44:52;73353.59;;;-149.71;71.07
53916;BME280;39827;49.652;18.770;2024-03-02T09:47:17;73347.56;;;-149.71;71.36
53916;BME280;39827;49.652;18.770;2024-03-02T09:49:43;73339.53;;;-149.71;72.00
53916;BME280;39827;49.652;18.770;2024-03-02T09:52:10;73351.56;;;-149.71;69.88
53916;BME280;39827;49.652;18.770;2024-03-02T09:54:36;73367.63;;;-149.71;69.50
53916;BME280;39827;49.652;18.770;2024-03-02T09:57:02;73359.59;;;-149.71;70.23
53916;BME280;39827;49.652;18.770;2024-03-02T09:59:28;73379.69;;;-149.71;71.52
53916;BME280;39827;49.652;18.770;2024-03-02T10:02:02;73365.63;;;-149.71;72.00
53916;BME280;39827;49.652;18.770;2024-03-02T10:04:29;73369.66;;;-149.71;71.36
53916;BME280;39827;49.652;18.770;2024-03-02T10:07:23;73383.72;;;-149.71;72.85
53916;BME280;39827;49.652;18.770;2024-03-02T10:09:49;73395.75;;;-149.71;73.27
53916;BME280;39827;49.652;18.770;2024-03-02T10:12:15;73399.78;;;-149.71;73.75
53916;BME280;39827;49.652;18.770;2024-03-02T10:14:42;73415.84;;;-149.71;74.96
53916;BME280;39827;49.652;18.770;2024-03-02T10:17:12;73427.91;;;-149.71;75.43
53916;BME280;39827;49.652;18.770;2024-03-02T10:19:38;73439.97;;;-149.71;77.24
53916;BME280;39827;49.652;18.770;2024-03-02T10:22:06;73484.16;;;-149.71;78.35
53916;BME280;39827;49.652;18.770;2024-03-02T10:24:36;73464.06;;;-149.71;78.55
53916;BME280;39827;49.652;18.770;2024-03-02T10:27:09;73466.06;;;-149.71;79.79
53916;BME280;39827;49.652;18.770;2024-03-02T10:29:39;73478.13;;;-149.71;80.35
53916;BME280;39827;49.652;18.770;2024-03-02T10:32:05;73482.13;;;-149.71;81.18
53916;BME280;39827;49.652;18.770;2024-03-02T10:34:31;73484.16;;;-149.71;81.08
53916;BME280;39827;49.652;18.770;2024-03-02T10:36:57;73496.19;;;-149.71;81.70
53916;BME280;39827;49.652;18.770;2024-03-02T10:39:24;73510.25;;;-149.71;82.30
53916;BME280;39827;49.652;18.770;2024-03-02T10:41:51;73494.19;;;-149.71;82.01
53916;BME280;39827;49.652;18.770;2024-03-02T10:44:17;73508.25;;;-149.71;82.04
53916;BME280;39827;49.652;18.770;2024-03-02T10:46:45;73480.13;;;-149.71;82.15
53916;BME280;39827;49.652;18.770;2024-03-02T10:49:12;73504.22;;;-149.71;82.51
53916;BME280;39827;49.652;18.770;2024-03-02T10:51:37;73498.22;;;-149.71;82.76
53916;BME280;39827;49.652;18.770;2024-03-02T10:54:03;73506.25;;;-149.71;83.26
53916;BME280;39827;49.652;18.770;2024-03-02T10:56:34;73502.22;;;-149.71;82.30
53916;BME280;39827;49.652;18.770;2024-03-02T10:59:33;73486.16;;;-149.71;83.28
53916;BME280;39827;49.652;18.770;2024-03-02T11:02:00;73492.19;;;-149.71;83.57
53916;BME280;39827;49.652;18.770;2024-03-02T11:04:26;73480.13;;;-149.71;83.15
53916;BME280;39827;49.652;18.770;2024-03-02T11:06:56;73476.13;;;-149.71;82.93
53916;BME280;39827;49.652;18.770;2024-03-02T11:09:26;73478.13;;;-149.71;83.22
53916;BME280;39827;49.652;18.770;2024-03-02T11:14:42;73508.25;;;-149.71;84.35
53916;BME280;39827;49.652;18.770;2024-03-02T11:17:11;73534.38;;;-149.71;83.98
53916;BME280;39827;49.652;18.770;2024-03-02T11:19:41;73536.38;;;-149.71;84.24
53916;BME280;39827;49.652;18.770;2024-03-02T11:22:08;73532.34;;;-149.71;85.04
53916;BME280;39827;49.652;18.770;2024-03-02T11:24:34;73518.28;;;-149.71;85.21
53916;BME280;39827;49.652;18.770;2024-03-02T11:27:00;73520.31;;;-149.71;85.48
53916;BME280;39827;49.652;18.770;2024-03-02T11:32:01;73504.22;;;-149.71;85.31
53916;BME280;39827;49.652;18.770;2024-03-02T11:34:34;73496.19;;;-149.71;84.71
53916;BME280;39827;49.652;18.770;2024-03-02T11:37:03;73480.13;;;-149.71;84.27
53916;BME280;39827;49.652;18.770;2024-03-02T11:39:30;73500.22;;;-149.71;83.94
53916;BME280;39827;49.652;18.770;2024-03-02T11:41:59;73484.16;;;-149.71;83.34
53916;BME280;39827;49.652;18.770;2024-03-02T11:44:26;73464.06;;;-149.71;83.42
53916;BME280;39827;49.652;18.770;2024-03-02T11:46:58;73488.16;;;-149.71;83.36
53916;BME280;39827;49.652;18.770;2024-03-02T11:52:07;73464.06;;;-149.71;84.58
53916;BME280;39827;49.652;18.770;2024-03-02T11:54:33;73470.09;;;-149.71;83.59
53916;BME280;39827;49.652;18.770;2024-03-02T11:57:05;73454.00;;;-149.71;83.92
53916;BME280;39827;49.652;18.770;2024-03-02T11:59:30;73443.97;;;-149.71;83.57
53916;BME280;39827;49.652;18.770;2024-03-02T12:01:56;73456.03;;;-149.71;83.75
53916;BME280;39827;49.652;18.770;2024-03-02T12:04:22;73445.97;;;-149.71;83.95
53916;BME280;39827;49.652;18.770;2024-03-02T12:06:54;73439.97;;;-149.71;83.78
53916;BME280;39827;49.652;18.770;2024-03-02T12:09:21;73421.88;;;-149.71;84.00
53916;BME280;39827;49.652;18.770;2024-03-02T12:11:46;73431.91;;;-149.71;84.12
53916;BME280;39827;49.652;18.770;2024-03-02T12:14:12;73419.88;;;-149.71;84.13
53916;BME280;39827;49.652;18.770;2024-03-02T12:16:44;73391.75;;;-149.71;84.45
53916;BME280;39827;49.652;18.770;2024-03-02T12:19:09;73409.81;;;-149.71;86.18
53916;BME280;39827;49.652;18.770;2024-03-02T12:21:35;73399.78;;;-149.71;86.49
53916;BME280;39827;49.652;18.770;2024-03-02T12:24:01;73391.75;;;-149.71;86.00
53916;BME280;39827;49.652;18.770;2024-03-02T12:26:27;73393.75;;;-149.71;86.29
53916;BME280;39827;49.652;18.770;2024-03-02T12:28:53;73383.72;;;-149.71;86.19
53916;BME280;39827;49.652;18.770;2024-03-02T12:31:19;73377.69;;;-149.71;86.02
53916;BME280;39827;49.652;18.770;2024-03-02T12:33:44;73371.66;;;-149.71;85.58
53916;BME280;39827;49.652;18.770;2024-03-02T12:36:13;73363.63;;;-149.71;85.87